sensor_id;sensor_type;location;lat;lon;timestamp;P1;durP1;ratioP1;P2;durP2;ratioP2
297;SDS011;133;49.626;9.680;2023-11-21T00:01:52;3.60;;;2.90;;
297;SDS011;133;49.626;9.680;2023-11-21T00:04:17;4.13;;;2.87;;
297;SDS011;133;49.626;9.680;2023-11-21T00:06:43;4.43;;;2.27;;
297;SDS011;133;49.626;9.680;2023-11-21T00:09:11;6.13;;;3.07;;
297;SDS011;133;49.626;9.680;2023-11-21T00:11:40;3.47;;;2.57;;
297;SDS011;133;49.626;9.680;2023-11-21T00:14:06;6.93;;;3.30;;
297;SDS011;133;49.626;9.680;2023-11-21T00:16:31;4.43;;;2.80;;
297;SDS011;133;49.626;9.680;2023-11-21T00:18:57;3.27;;;2.60;;
297;SDS011;133;49.626;9.680;2023-11-21T00:21:22;3.00;;;2.73;;
297;SDS011;133;49.626;9.680;2023-11-21T00:23:48;4.47;;;2.93;;
297;SDS011;133;49.626;9.680;2023-11-21T00:26:14;7.33;;;2.93;;
297;SDS011;133;49.626;9.680;2023-11-21T00:28:39;4.33;;;2.60;;
297;SDS011;133;49.626;9.680;2023-11-21T00:31:05;5.17;;;3.20;;
297;SDS011;133;49.626;9.680;2023-11-21T00:33:30;14.87;;;3.07;;
297;SDS011;133;49.626;9.680;2023-11-21T00:35:56;3.00;;;2.83;;
297;SDS011;133;49.626;9.680;2023-11-21T00:38:22;5.83;;;3.20;;
297;SDS011;133;49.626;9.680;2023-11-21T00:40:48;3.83;;;3.23;;
297;SDS011;133;49.626;9.680;2023-11-21T00:43:13;6.90;;;3.40;;
297;SDS011;133;49.626;9.680;2023-11-21T00:45:40;9.80;;;3.40;;
297;SDS011;133;49.626;9.680;2023-11-21T00:48:05;8.70;;;3.57;;
297;SDS011;133;49.626;9.680;2023-11-21T00:50:33;4.43;;;3.20;;
297;SDS011;133;49.626;9.680;2023-11-21T00:52:59;8.63;;;2.93;;
297;SDS011;133;49.626;9.680;2023-11-21T00:55:24;4.53;;;3.30;;
297;SDS011;133;49.626;9.680;2023-11-21T00:57:51;3.53;;;2.83;;
297;SDS011;133;49.626;9.680;2023-11-21T01:00:17;5.30;;;2.90;;
297;SDS011;133;49.626;9.680;2023-11-21T01:02:45;5.93;;;3.37;;
297;SDS011;133;49.626;9.680;2023-11-21T01:05:12;7.70;;;3.30;;
297;SDS011;133;49.626;9.680;2023-11-21T01:07:37;3.63;;;2.80;;
297;SDS011;133;49.626;9.680;2023-11-21T01:10:03;7.27;;;2.93;;
297;SDS011;133;49.626;9.680;2023-11-21T01:12:36;3.67;;;3.27;;
297;SDS011;133;49.626;9.680;2023-11-21T01:15:03;4.13;;;2.83;;
297;SDS011;133;49.626;9.680;2023-11-21T01:17:32;7.97;;;3.40;;
297;SDS011;133;49.626;9.680;2023-11-21T01:19:59;4.87;;;2.80;;
297;SDS011;133;49.626;9.680;2023-11-21T01:22:25;3.50;;;3.03;;
297;SDS011;133;49.626;9.680;2023-11-21T01:24:51;7.00;;;3.57;;
297;SDS011;133;49.626;9.680;2023-11-21T01:27:18;2.87;;;2.67;;
297;SDS011;133;49.626;9.680;2023-11-21T01:29:44;6.80;;;2.90;;
297;SDS011;133;49.626;9.680;2023-11-21T01:32:09;5.30;;;2.87;;
297;SDS011;133;49.626;9.680;2023-11-21T01:34:35;3.67;;;2.53;;
297;SDS011;133;49.626;9.680;2023-11-21T01:37:01;3.60;;;2.70;;
297;SDS011;133;49.626;9.680;2023-11-21T01:39:29;7.83;;;3.13;;
297;SDS011;133;49.626;9.680;2023-11-21T01:41:55;7.20;;;3.13;;
297;SDS011;133;49.626;9.680;2023-11-21T01:44:23;5.67;;;2.97;;
297;SDS011;133;49.626;9.680;2023-11-21T01:46:49;4.23;;;2.70;;
297;SDS011;133;49.626;9.680;2023-11-21T01:49:16;4.70;;;2.90;;
297;SDS011;133;49.626;9.680;2023-11-21T01:51:43;4.97;;;3.13;;
297;SDS011;133;49.626;9.680;2023-11-21T01:54:13;6.53;;;2.80;;
297;SDS011;133;49.626;9.680;2023-11-21T01:56:40;5.30;;;3.00;;
297;SDS011;133;49.626;9.680;2023-11-21T01:59:05;2.63;;;2.43;;
297;SDS011;133;49.626;9.680;2023-11-21T02:01:32;4.80;;;2.50;;
297;SDS011;133;49.626;9.680;2023-11-21T02:03:58;2.87;;;2.70;;
297;SDS011;133;49.626;9.680;2023-11-21T02:06:24;2.67;;;2.47;;
297;SDS011;133;49.626;9.680;2023-11-21T02:08:50;3.10;;;2.70;;
297;SDS011;133;49.626;9.680;2023-11-21T02:11:16;5.07;;;2.87;;
297;SDS011;133;49.626;9.680;2023-11-21T02:13:44;7.57;;;2.93;;
297;SDS011;133;49.626;9.680;2023-11-21T02:16:10;3.13;;;2.80;;
297;SDS011;133;49.626;9.680;2023-11-21T02:18:37;2.90;;;2.53;;
297;SDS011;133;49.626;9.680;2023-11-21T02:21:04;3.10;;;2.93;;
297;SDS011;133;49.626;9.680;2023-11-21T02:23:30;4.40;;;2.63;;
297;SDS011;133;49.626;9.680;2023-11-21T02:25:55;2.70;;;2.40;;
297;SDS011;133;49.626;9.680;2023-11-21T02:28:21;4.43;;;2.80;;
297;SDS011;133;49.626;9.680;2023-11-21T02:30:51;2.83;;;2.63;;
297;SDS011;133;49.626;9.680;2023-11-21T02:33:20;3.03;;;2.60;;
297;SDS011;133;49.626;9.680;2023-11-21T02:35:46;3.83;;;2.80;;
297;SDS011;133;49.626;9.680;2023-11-21T02:38:12;8.97;;;3.43;;
297;SDS011;133;49.626;9.680;2023-11-21T02:40:38;4.60;;;2.70;;
297;SDS011;133;49.626;9.680;2023-11-21T02:43:04;7.00;;;3.40;;
297;SDS011;133;49.626;9.680;2023-11-21T02:45:30;4.40;;;2.97;;
297;SDS011;133;49.626;9.680;2023-11-21T02:47:56;3.63;;;2.90;;
297;SDS011;133;49.626;9.680;2023-11-21T02:50:22;9.40;;;3.00;;
297;SDS011;133;49.626;9.680;2023-11-21T02:52:48;4.10;;;2.67;;
297;SDS011;133;49.626;9.680;2023-11-21T02:55:13;6.20;;;3.23;;
297;SDS011;133;49.626;9.680;2023-11-21T02:57:39;5.20;;;3.27;;
297;SDS011;133;49.626;9.680;2023-11-21T03:00:05;5.00;;;3.03;;
297;SDS011;133;49.626;9.680;2023-11-21T03:02:39;8.37;;;2.77;;
297;SDS011;133;49.626;9.680;2023-11-21T03:05:06;3.17;;;2.97;;
297;SDS011;133;49.626;9.680;2023-11-21T03:07:33;3.00;;;2.80;;
297;SDS011;133;49.626;9.680;2023-11-21T03:10:00;5.27;;;2.70;;
297;SDS011;133;49.626;9.680;2023-11-21T03:12:25;4.17;;;2.70;;
297;SDS011;133;49.626;9.680;2023-11-21T03:14:51;3.77;;;2.80;;
297;SDS011;133;49.626;9.680;2023-11-21T03:17:16;3.03;;;2.70;;
297;SDS011;133;49.626;9.680;2023-11-21T03:19:42;3.30;;;2.77;;
297;SDS011;133;49.626;9.680;2023-11-21T03:22:08;5.00;;;2.93;;
297;SDS011;133;49.626;9.680;2023-11-21T03:24:33;3.73;;;2.97;;
297;SDS011;133;49.626;9.680;2023-11-21T03:26:59;4.53;;;3.07;;
297;SDS011;133;49.626;9.680;2023-11-21T03:29:25;4.30;;;3.10;;
297;SDS011;133;49.626;9.680;2023-11-21T03:31:50;2.73;;;2.60;;
297;SDS011;133;49.626;9.680;2023-11-21T03:34:23;3.57;;;2.50;;
297;SDS011;133;49.626;9.680;2023-11-21T03:36:50;2.70;;;2.53;;
297;SDS011;133;49.626;9.680;2023-11-21T03:39:17;2.63;;;2.43;;
297;SDS011;133;49.626;9.680;2023-11-21T03:41:43;4.00;;;2.80;;
297;SDS011;133;49.626;9.680;2023-11-21T03:44:09;3.70;;;2.40;;
297;SDS011;133;49.626;9.680;2023-11-21T03:46:35;2.80;;;2.20;;
297;SDS011;133;49.626;9.680;2023-11-21T03:49:01;2.70;;;2.50;;
297;SDS011;133;49.626;9.680;2023-11-21T03:51:26;3.07;;;2.73;;
297;SDS011;133;49.626;9.680;2023-11-21T03:53:52;5.13;;;2.67;;
297;SDS011;133;49.626;9.680;2023-11-21T03:56:17;2.87;;;2.40;;
297;SDS011;133;49.626;9.680;2023-11-21T03:58:43;2.87;;;2.60;;
297;SDS011;133;49.626;9.680;2023-11-21T04:01:09;2.77;;;2.57;;
297;SDS011;133;49.626;9.680;2023-11-21T04:03:34;3.60;;;2.20;;
297;SDS011;133;49.626;9.680;2023-11-21T04:06:00;2.67;;;2.30;;
297;SDS011;133;49.626;9.680;2023-11-21T04:08:26;2.80;;;2.13;;
297;SDS011;133;49.626;9.680;2023-11-21T04:10:52;2.27;;;2.00;;
297;SDS011;133;49.626;9.680;2023-11-21T04:13:18;8.60;;;3.17;;
297;SDS011;133;49.626;9.680;2023-11-21T04:15:44;2.20;;;2.00;;
297;SDS011;133;49.626;9.680;2023-11-21T04:18:09;2.73;;;1.80;;
297;SDS011;133;49.626;9.680;2023-11-21T04:20:35;2.20;;;2.00;;
297;SDS011;133;49.626;9.680;2023-11-21T04:23:01;1.90;;;1.80;;
297;SDS011;133;49.626;9.680;2023-11-21T04:25:26;2.00;;;1.90;;
297;SDS011;133;49.626;9.680;2023-11-21T04:27:53;2.30;;;2.10;;
297;SDS011;133;49.626;9.680;2023-11-21T04:30:19;2.27;;;2.00;;
297;SDS011;133;49.626;9.680;2023-11-21T04:32:45;2.20;;;1.90;;
297;SDS011;133;49.626;9.680;2023-11-21T04:35:11;3.50;;;2.40;;
297;SDS011;133;49.626;9.680;2023-11-21T04:37:37;2.40;;;2.30;;
297;SDS011;133;49.626;9.680;2023-11-21T04:40:02;1.97;;;1.90;;
297;SDS011;133;49.626;9.680;2023-11-21T04:42:33;4.40;;;2.10;;
297;SDS011;133;49.626;9.680;2023-11-21T04:45:02;1.80;;;1.70;;
297;SDS011;133;49.626;9.680;2023-11-21T04:47:33;3.50;;;1.90;;
297;SDS011;133;49.626;9.680;2023-11-21T04:49:58;3.50;;;2.00;;
297;SDS011;133;49.626;9.680;2023-11-21T04:52:24;9.97;;;2.30;;
297;SDS011;133;49.626;9.680;2023-11-21T04:54:49;2.40;;;1.97;;
297;SDS011;133;49.626;9.680;2023-11-21T04:57:15;2.37;;;2.17;;
297;SDS011;133;49.626;9.680;2023-11-21T04:59:43;1.90;;;1.80;;
297;SDS011;133;49.626;9.680;2023-11-21T05:02:08;2.23;;;2.07;;
297;SDS011;133;49.626;9.680;2023-11-21T05:04:34;2.80;;;1.90;;
297;SDS011;133;49.626;9.680;2023-11-21T05:06:59;1.93;;;1.80;;
297;SDS011;133;49.626;9.680;2023-11-21T05:09:25;3.57;;;1.83;;
297;SDS011;133;49.626;9.680;2023-11-21T05:11:53;1.80;;;1.70;;
297;SDS011;133;49.626;9.680;2023-11-21T05:14:19;1.87;;;1.70;;
297;SDS011;133;49.626;9.680;2023-11-21T05:16:45;1.73;;;1.70;;
297;SDS011;133;49.626;9.680;2023-11-21T05:19:11;1.83;;;1.60;;
297;SDS011;133;49.626;9.680;2023-11-21T05:21:38;1.80;;;1.70;;
297;SDS011;133;49.626;9.680;2023-11-21T05:24:04;2.20;;;1.77;;
297;SDS011;133;49.626;9.680;2023-11-21T05:26:30;2.17;;;1.50;;
297;SDS011;133;49.626;9.680;2023-11-21T05:28:56;2.63;;;1.60;;
297;SDS011;133;49.626;9.680;2023-11-21T05:31:21;1.70;;;1.60;;
297;SDS011;133;49.626;9.680;2023-11-21T05:33:47;4.30;;;2.07;;
297;SDS011;133;49.626;9.680;2023-11-21T05:36:12;1.60;;;1.50;;
297;SDS011;133;49.626;9.680;2023-11-21T05:38:38;1.80;;;1.50;;
297;SDS011;133;49.626;9.680;2023-11-21T05:41:03;1.83;;;1.73;;
297;SDS011;133;49.626;9.680;2023-11-21T05:43:29;1.70;;;1.60;;
297;SDS011;133;49.626;9.680;2023-11-21T05:45:55;1.60;;;1.50;;
297;SDS011;133;49.626;9.680;2023-11-21T05:48:21;3.83;;;1.60;;
297;SDS011;133;49.626;9.680;2023-11-21T05:50:47;3.07;;;1.70;;
297;SDS011;133;49.626;9.680;2023-11-21T05:53:14;1.70;;;1.60;;
297;SDS011;133;49.626;9.680;2023-11-21T05:55:40;2.37;;;2.17;;
297;SDS011;133;49.626;9.680;2023-11-21T05:58:07;1.90;;;1.80;;
297;SDS011;133;49.626;9.680;2023-11-21T06:00:32;2.30;;;1.80;;
297;SDS011;133;49.626;9.680;2023-11-21T06:02:58;2.90;;;2.10;;
297;SDS011;133;49.626;9.680;2023-11-21T06:05:24;2.43;;;2.23;;
297;SDS011;133;49.626;9.680;2023-11-21T06:07:51;3.00;;;2.10;;
297;SDS011;133;49.626;9.680;2023-11-21T06:10:19;4.40;;;1.90;;
297;SDS011;133;49.626;9.680;2023-11-21T06:12:45;4.10;;;1.77;;
297;SDS011;133;49.626;9.680;2023-11-21T06:15:11;2.00;;;1.90;;
297;SDS011;133;49.626;9.680;2023-11-21T06:17:40;1.97;;;1.90;;
297;SDS011;133;49.626;9.680;2023-11-21T06:20:07;2.00;;;1.90;;
297;SDS011;133;49.626;9.680;2023-11-21T06:22:37;1.90;;;1.80;;
297;SDS011;133;49.626;9.680;2023-11-21T06:25:04;1.90;;;1.80;;
297;SDS011;133;49.626;9.680;2023-11-21T06:27:34;1.80;;;1.70;;
297;SDS011;133;49.626;9.680;2023-11-21T06:30:02;1.90;;;1.80;;
297;SDS011;133;49.626;9.680;2023-11-21T06:32:29;6.80;;;1.80;;
297;SDS011;133;49.626;9.680;2023-11-21T06:34:55;1.80;;;1.70;;
297;SDS011;133;49.626;9.680;2023-11-21T06:37:21;1.80;;;1.70;;
297;SDS011;133;49.626;9.680;2023-11-21T06:39:48;2.20;;;2.10;;
297;SDS011;133;49.626;9.680;2023-11-21T06:42:14;3.10;;;2.70;;
297;SDS011;133;49.626;9.680;2023-11-21T06:44:40;2.83;;;2.63;;
297;SDS011;133;49.626;9.680;2023-11-21T06:47:06;4.33;;;4.03;;
297;SDS011;133;49.626;9.680;2023-11-21T06:49:32;5.70;;;5.40;;
297;SDS011;133;49.626;9.680;2023-11-21T06:51:57;6.57;;;6.20;;
297;SDS011;133;49.626;9.680;2023-11-21T06:54:24;5.40;;;5.10;;
297;SDS011;133;49.626;9.680;2023-11-21T06:56:49;6.17;;;5.30;;
297;SDS011;133;49.626;9.680;2023-11-21T06:59:15;8.70;;;6.53;;
297;SDS011;133;49.626;9.680;2023-11-21T07:01:41;6.83;;;5.40;;
297;SDS011;133;49.626;9.680;2023-11-21T07:04:06;4.50;;;4.20;;
297;SDS011;133;49.626;9.680;2023-11-21T07:06:33;4.53;;;3.80;;
297;SDS011;133;49.626;9.680;2023-11-21T07:08:59;4.57;;;3.50;;
297;SDS011;133;49.626;9.680;2023-11-21T07:11:26;4.30;;;4.00;;
297;SDS011;133;49.626;9.680;2023-11-21T07:13:52;3.23;;;2.97;;
297;SDS011;133;49.626;9.680;2023-11-21T07:16:18;5.27;;;3.37;;
297;SDS011;133;49.626;9.680;2023-11-21T07:18:43;2.93;;;2.73;;
297;SDS011;133;49.626;9.680;2023-11-21T07:21:09;3.20;;;3.00;;
297;SDS011;133;49.626;9.680;2023-11-21T07:23:37;2.70;;;2.50;;
297;SDS011;133;49.626;9.680;2023-11-21T07:26:02;3.23;;;3.03;;
297;SDS011;133;49.626;9.680;2023-11-21T07:28:31;3.00;;;2.70;;
297;SDS011;133;49.626;9.680;2023-11-21T07:30:57;2.70;;;2.50;;
297;SDS011;133;49.626;9.680;2023-11-21T07:33:25;5.23;;;3.47;;
297;SDS011;133;49.626;9.680;2023-11-21T07:35:50;4.30;;;4.00;;
297;SDS011;133;49.626;9.680;2023-11-21T07:38:17;4.90;;;4.30;;
297;SDS011;133;49.626;9.680;2023-11-21T07:40:42;4.53;;;4.27;;
297;SDS011;133;49.626;9.680;2023-11-21T07:43:11;5.27;;;4.73;;
297;SDS011;133;49.626;9.680;2023-11-21T07:45:37;5.90;;;4.70;;
297;SDS011;133;49.626;9.680;2023-11-21T07:48:02;6.20;;;4.87;;
297;SDS011;133;49.626;9.680;2023-11-21T07:50:30;5.40;;;4.40;;
297;SDS011;133;49.626;9.680;2023-11-21T07:52:55;5.83;;;4.63;;
297;SDS011;133;49.626;9.680;2023-11-21T07:55:22;6.40;;;5.30;;
297;SDS011;133;49.626;9.680;2023-11-21T07:57:49;15.50;;;12.10;;
297;SDS011;133;49.626;9.680;2023-11-21T08:00:18;10.97;;;8.13;;
297;SDS011;133;49.626;9.680;2023-11-21T08:02:46;16.13;;;11.57;;
297;SDS011;133;49.626;9.680;2023-11-21T08:05:12;56.10;;;25.00;;
297;SDS011;133;49.626;9.680;2023-11-21T08:07:37;39.87;;;26.30;;
297;SDS011;133;49.626;9.680;2023-11-21T08:10:03;16.27;;;10.20;;
297;SDS011;133;49.626;9.680;2023-11-21T08:12:30;15.73;;;11.50;;
297;SDS011;133;49.626;9.680;2023-11-21T08:14:55;8.97;;;8.10;;
297;SDS011;133;49.626;9.680;2023-11-21T08:17:21;7.80;;;6.80;;
297;SDS011;133;49.626;9.680;2023-11-21T08:19:47;16.53;;;15.73;;
297;SDS011;133;49.626;9.680;2023-11-21T08:22:15;13.20;;;12.13;;
297;SDS011;133;49.626;9.680;2023-11-21T08:24:42;9.53;;;8.50;;
297;SDS011;133;49.626;9.680;2023-11-21T08:27:08;8.73;;;8.23;;
297;SDS011;133;49.626;9.680;2023-11-21T08:29:34;9.73;;;7.27;;
297;SDS011;133;49.626;9.680;2023-11-21T08:32:01;6.90;;;5.63;;
297;SDS011;133;49.626;9.680;2023-11-21T08:34:27;6.30;;;5.30;;
297;SDS011;133;49.626;9.680;2023-11-21T08:36:53;8.90;;;7.27;;
297;SDS011;133;49.626;9.680;2023-11-21T08:39:20;10.07;;;8.10;;
297;SDS011;133;49.626;9.680;2023-11-21T08:41:49;10.67;;;8.70;;
297;SDS011;133;49.626;9.680;2023-11-21T08:44:17;8.63;;;7.53;;
297;SDS011;133;49.626;9.680;2023-11-21T08:46:47;5.77;;;5.47;;
297;SDS011;133;49.626;9.680;2023-11-21T08:49:14;4.30;;;4.03;;
297;SDS011;133;49.626;9.680;2023-11-21T08:51:40;6.00;;;4.20;;
297;SDS011;133;49.626;9.680;2023-11-21T08:54:06;4.43;;;4.13;;
297;SDS011;133;49.626;9.680;2023-11-21T08:56:34;8.27;;;5.50;;
297;SDS011;133;49.626;9.680;2023-11-21T08:59:00;7.63;;;6.70;;
297;SDS011;133;49.626;9.680;2023-11-21T09:01:27;7.33;;;6.00;;
297;SDS011;133;49.626;9.680;2023-11-21T09:03:53;5.50;;;5.03;;
297;SDS011;133;49.626;9.680;2023-11-21T09:06:18;5.77;;;5.47;;
297;SDS011;133;49.626;9.680;2023-11-21T09:08:44;11.07;;;5.70;;
297;SDS011;133;49.626;9.680;2023-11-21T09:11:10;6.83;;;6.10;;
297;SDS011;133;49.626;9.680;2023-11-21T09:13:35;6.77;;;5.80;;
297;SDS011;133;49.626;9.680;2023-11-21T09:16:01;6.47;;;4.80;;
297;SDS011;133;49.626;9.680;2023-11-21T09:18:27;5.20;;;4.40;;
297;SDS011;133;49.626;9.680;2023-11-21T09:20:52;6.60;;;4.90;;
297;SDS011;133;49.626;9.680;2023-11-21T09:23:18;4.80;;;4.50;;
297;SDS011;133;49.626;9.680;2023-11-21T09:25:43;4.97;;;4.30;;
297;SDS011;133;49.626;9.680;2023-11-21T09:28:11;5.03;;;4.70;;
297;SDS011;133;49.626;9.680;2023-11-21T09:30:37;5.20;;;4.90;;
297;SDS011;133;49.626;9.680;2023-11-21T09:33:03;6.80;;;5.20;;
297;SDS011;133;49.626;9.680;2023-11-21T09:35:32;6.40;;;5.37;;
297;SDS011;133;49.626;9.680;2023-11-21T09:37:57;7.07;;;5.80;;
297;SDS011;133;49.626;9.680;2023-11-21T09:40:23;8.20;;;7.10;;
297;SDS011;133;49.626;9.680;2023-11-21T09:42:53;13.60;;;9.90;;
297;SDS011;133;49.626;9.680;2023-11-21T09:45:31;9.60;;;6.73;;
297;SDS011;133;49.626;9.680;2023-11-21T09:47:59;14.20;;;9.97;;
297;SDS011;133;49.626;9.680;2023-11-21T09:50:25;9.43;;;7.90;;
297;SDS011;133;49.626;9.680;2023-11-21T09:52:58;12.40;;;8.43;;
297;SDS011;133;49.626;9.680;2023-11-21T09:55:36;12.60;;;7.60;;
297;SDS011;133;49.626;9.680;2023-11-21T09:58:03;10.87;;;7.10;;
297;SDS011;133;49.626;9.680;2023-11-21T10:00:32;8.77;;;7.10;;
297;SDS011;133;49.626;9.680;2023-11-21T10:02:58;5.47;;;5.20;;
297;SDS011;133;49.626;9.680;2023-11-21T10:05:25;6.57;;;5.43;;
297;SDS011;133;49.626;9.680;2023-11-21T10:07:50;12.60;;;7.90;;
297;SDS011;133;49.626;9.680;2023-11-21T10:10:18;9.40;;;6.73;;
297;SDS011;133;49.626;9.680;2023-11-21T10:12:49;8.50;;;6.10;;
297;SDS011;133;49.626;9.680;2023-11-21T10:15:20;12.83;;;7.67;;
297;SDS011;133;49.626;9.680;2023-11-21T10:17:46;14.37;;;9.27;;
297;SDS011;133;49.626;9.680;2023-11-21T10:20:14;7.97;;;7.10;;
297;SDS011;133;49.626;9.680;2023-11-21T10:22:41;10.80;;;7.07;;
297;SDS011;133;49.626;9.680;2023-11-21T10:25:10;8.97;;;7.00;;
297;SDS011;133;49.626;9.680;2023-11-21T10:27:39;10.20;;;6.10;;
297;SDS011;133;49.626;9.680;2023-11-21T10:30:06;8.17;;;5.30;;
297;SDS011;133;49.626;9.680;2023-11-21T10:32:36;11.63;;;6.30;;
297;SDS011;133;49.626;9.680;2023-11-21T10:35:06;9.37;;;6.60;;
297;SDS011;133;49.626;9.680;2023-11-21T10:37:35;9.30;;;5.90;;
297;SDS011;133;49.626;9.680;2023-11-21T10:40:04;14.33;;;8.77;;
297;SDS011;133;49.626;9.680;2023-11-21T10:42:36;13.97;;;8.97;;
297;SDS011;133;49.626;9.680;2023-11-21T10:45:06;13.70;;;8.00;;
297;SDS011;133;49.626;9.680;2023-11-21T10:47:38;8.80;;;6.50;;
297;SDS011;133;49.626;9.680;2023-11-21T10:50:08;7.80;;;5.70;;
297;SDS011;133;49.626;9.680;2023-11-21T10:52:42;7.67;;;5.57;;
297;SDS011;133;49.626;9.680;2023-11-21T10:55:19;8.37;;;5.50;;
297;SDS011;133;49.626;9.680;2023-11-21T10:57:48;5.53;;;4.83;;
297;SDS011;133;49.626;9.680;2023-11-21T11:00:16;6.60;;;5.10;;
297;SDS011;133;49.626;9.680;2023-11-21T11:02:45;6.90;;;4.97;;
297;SDS011;133;49.626;9.680;2023-11-21T11:05:15;5.73;;;4.77;;
297;SDS011;133;49.626;9.680;2023-11-21T11:07:45;5.27;;;4.67;;
297;SDS011;133;49.626;9.680;2023-11-21T11:10:17;5.37;;;4.50;;
297;SDS011;133;49.626;9.680;2023-11-21T11:12:45;6.03;;;4.73;;
297;SDS011;133;49.626;9.680;2023-11-21T11:15:12;6.10;;;4.50;;
297;SDS011;133;49.626;9.680;2023-11-21T11:17:39;6.37;;;4.90;;
297;SDS011;133;49.626;9.680;2023-11-21T11:20:05;5.20;;;4.90;;
297;SDS011;133;49.626;9.680;2023-11-21T11:28:14;7.50;;;5.60;;
297;SDS011;133;49.626;9.680;2023-11-21T11:33:30;9.60;;;5.47;;
297;SDS011;133;49.626;9.680;2023-11-21T11:36:05;5.70;;;5.37;;
297;SDS011;133;49.626;9.680;2023-11-21T11:38:54;11.10;;;7.00;;
297;SDS011;133;49.626;9.680;2023-11-21T11:41:27;6.73;;;4.73;;
297;SDS011;133;49.626;9.680;2023-11-21T11:43:57;6.43;;;4.90;;
297;SDS011;133;49.626;9.680;2023-11-21T11:46:43;6.47;;;5.30;;
297;SDS011;133;49.626;9.680;2023-11-21T11:49:27;8.20;;;5.83;;
297;SDS011;133;49.626;9.680;2023-11-21T11:54:56;5.70;;;4.53;;
297;SDS011;133;49.626;9.680;2023-11-21T11:57:24;8.50;;;6.50;;
297;SDS011;133;49.626;9.680;2023-11-21T12:02:41;8.90;;;5.53;;
297;SDS011;133;49.626;9.680;2023-11-21T12:05:12;5.47;;;4.23;;
297;SDS011;133;49.626;9.680;2023-11-21T12:10:15;7.20;;;5.03;;
297;SDS011;133;49.626;9.680;2023-11-21T12:12:49;10.70;;;4.47;;
297;SDS011;133;49.626;9.680;2023-11-21T12:15:17;5.53;;;4.13;;
297;SDS011;133;49.626;9.680;2023-11-21T12:17:44;6.17;;;3.20;;
297;SDS011;133;49.626;9.680;2023-11-21T12:20:10;4.17;;;3.00;;
297;SDS011;133;49.626;9.680;2023-11-21T12:22:43;6.63;;;2.97;;
297;SDS011;133;49.626;9.680;2023-11-21T12:25:12;3.90;;;3.10;;
297;SDS011;133;49.626;9.680;2023-11-21T12:27:43;2.93;;;2.80;;
297;SDS011;133;49.626;9.680;2023-11-21T12:30:17;2.50;;;2.27;;
297;SDS011;133;49.626;9.680;2023-11-21T12:32:44;3.60;;;2.33;;
297;SDS011;133;49.626;9.680;2023-11-21T12:35:13;2.77;;;2.50;;
297;SDS011;133;49.626;9.680;2023-11-21T12:37:41;2.63;;;2.43;;
297;SDS011;133;49.626;9.680;2023-11-21T12:40:10;3.03;;;2.57;;
297;SDS011;133;49.626;9.680;2023-11-21T12:42:40;4.70;;;2.40;;
297;SDS011;133;49.626;9.680;2023-11-21T12:47:51;3.30;;;2.80;;
297;SDS011;133;49.626;9.680;2023-11-21T12:50:20;2.30;;;2.10;;
297;SDS011;133;49.626;9.680;2023-11-21T12:52:49;2.40;;;2.20;;
297;SDS011;133;49.626;9.680;2023-11-21T12:55:21;4.10;;;2.37;;
297;SDS011;133;49.626;9.680;2023-11-21T12:57:48;2.30;;;2.10;;
297;SDS011;133;49.626;9.680;2023-11-21T13:00:20;2.77;;;2.23;;
297;SDS011;133;49.626;9.680;2023-11-21T13:02:56;4.87;;;2.80;;
297;SDS011;133;49.626;9.680;2023-11-21T13:05:30;7.97;;;2.73;;
297;SDS011;133;49.626;9.680;2023-11-21T13:08:02;3.00;;;2.60;;
297;SDS011;133;49.626;9.680;2023-11-21T13:10:29;6.67;;;3.73;;
297;SDS011;133;49.626;9.680;2023-11-21T13:12:57;7.40;;;4.53;;
297;SDS011;133;49.626;9.680;2023-11-21T13:15:27;14.53;;;5.73;;
297;SDS011;133;49.626;9.680;2023-11-21T13:17:53;7.97;;;4.60;;
297;SDS011;133;49.626;9.680;2023-11-21T13:20:19;12.90;;;5.87;;
297;SDS011;133;49.626;9.680;2023-11-21T13:22:55;4.70;;;3.40;;
297;SDS011;133;49.626;9.680;2023-11-21T13:25:26;7.20;;;4.27;;
297;SDS011;133;49.626;9.680;2023-11-21T13:27:53;9.37;;;4.00;;
297;SDS011;133;49.626;9.680;2023-11-21T13:30:25;6.40;;;3.90;;
297;SDS011;133;49.626;9.680;2023-11-21T13:32:52;10.07;;;4.40;;
297;SDS011;133;49.626;9.680;2023-11-21T13:35:22;5.30;;;3.80;;
297;SDS011;133;49.626;9.680;2023-11-21T13:37:55;3.33;;;3.07;;
297;SDS011;133;49.626;9.680;2023-11-21T13:40:24;3.87;;;3.10;;
297;SDS011;133;49.626;9.680;2023-11-21T13:42:53;5.33;;;3.13;;
297;SDS011;133;49.626;9.680;2023-11-21T13:45:23;5.73;;;5.20;;
297;SDS011;133;49.626;9.680;2023-11-21T13:47:50;2.87;;;2.70;;
297;SDS011;133;49.626;9.680;2023-11-21T13:50:20;3.90;;;3.80;;
297;SDS011;133;49.626;9.680;2023-11-21T13:52:50;3.80;;;2.73;;
297;SDS011;133;49.626;9.680;2023-11-21T13:55:18;7.70;;;3.80;;
297;SDS011;133;49.626;9.680;2023-11-21T13:57:44;4.63;;;2.77;;
297;SDS011;133;49.626;9.680;2023-11-21T14:00:14;8.43;;;6.27;;
297;SDS011;133;49.626;9.680;2023-11-21T14:03:00;4.00;;;3.80;;
297;SDS011;133;49.626;9.680;2023-11-21T14:05:29;6.53;;;3.17;;
297;SDS011;133;49.626;9.680;2023-11-21T14:07:56;9.60;;;4.77;;
297;SDS011;133;49.626;9.680;2023-11-21T14:10:28;9.90;;;4.20;;
297;SDS011;133;49.626;9.680;2023-11-21T14:13:02;9.07;;;4.20;;
297;SDS011;133;49.626;9.680;2023-11-21T14:15:28;7.67;;;4.00;;
297;SDS011;133;49.626;9.680;2023-11-21T14:17:54;13.20;;;5.93;;
297;SDS011;133;49.626;9.680;2023-11-21T14:20:20;8.07;;;5.37;;
297;SDS011;133;49.626;9.680;2023-11-21T14:22:46;7.40;;;4.40;;
297;SDS011;133;49.626;9.680;2023-11-21T14:25:12;11.67;;;5.70;;
297;SDS011;133;49.626;9.680;2023-11-21T14:27:39;9.97;;;5.90;;
297;SDS011;133;49.626;9.680;2023-11-21T14:30:05;6.50;;;4.50;;
297;SDS011;133;49.626;9.680;2023-11-21T14:32:31;9.03;;;4.87;;
297;SDS011;133;49.626;9.680;2023-11-21T14:34:57;9.50;;;5.50;;
297;SDS011;133;49.626;9.680;2023-11-21T14:37:22;8.43;;;5.30;;
297;SDS011;133;49.626;9.680;2023-11-21T14:39:48;7.10;;;4.70;;
297;SDS011;133;49.626;9.680;2023-11-21T14:42:15;6.13;;;3.70;;
297;SDS011;133;49.626;9.680;2023-11-21T14:44:41;8.33;;;4.50;;
297;SDS011;133;49.626;9.680;2023-11-21T14:47:07;9.23;;;4.33;;
297;SDS011;133;49.626;9.680;2023-11-21T14:49:43;6.50;;;4.50;;
297;SDS011;133;49.626;9.680;2023-11-21T14:52:21;5.63;;;4.10;;
297;SDS011;133;49.626;9.680;2023-11-21T14:55:02;7.13;;;4.30;;
297;SDS011;133;49.626;9.680;2023-11-21T14:57:45;8.73;;;4.63;;
297;SDS011;133;49.626;9.680;2023-11-21T15:00:18;6.67;;;4.27;;
297;SDS011;133;49.626;9.680;2023-11-21T15:03:04;13.40;;;5.90;;
297;SDS011;133;49.626;9.680;2023-11-21T15:05:30;7.93;;;3.80;;
297;SDS011;133;49.626;9.680;2023-11-21T15:07:56;7.50;;;4.20;;
297;SDS011;133;49.626;9.680;2023-11-21T15:10:33;6.33;;;3.60;;
297;SDS011;133;49.626;9.680;2023-11-21T15:13:11;6.77;;;4.00;;
297;SDS011;133;49.626;9.680;2023-11-21T15:15:37;7.77;;;3.60;;
297;SDS011;133;49.626;9.680;2023-11-21T15:18:04;7.63;;;4.90;;
297;SDS011;133;49.626;9.680;2023-11-21T15:20:30;8.60;;;5.23;;
297;SDS011;133;49.626;9.680;2023-11-21T15:22:56;4.70;;;4.00;;
297;SDS011;133;49.626;9.680;2023-11-21T15:25:21;10.40;;;4.60;;
297;SDS011;133;49.626;9.680;2023-11-21T15:27:47;6.30;;;4.83;;
297;SDS011;133;49.626;9.680;2023-11-21T15:30:15;10.70;;;4.93;;
297;SDS011;133;49.626;9.680;2023-11-21T15:32:45;6.83;;;5.37;;
297;SDS011;133;49.626;9.680;2023-11-21T15:35:10;8.43;;;4.50;;
297;SDS011;133;49.626;9.680;2023-11-21T15:37:39;7.17;;;5.67;;
297;SDS011;133;49.626;9.680;2023-11-21T15:40:05;6.37;;;5.20;;
297;SDS011;133;49.626;9.680;2023-11-21T15:42:33;7.30;;;4.60;;
297;SDS011;133;49.626;9.680;2023-11-21T15:45:00;10.07;;;5.13;;
297;SDS011;133;49.626;9.680;2023-11-21T15:47:26;11.87;;;4.70;;
297;SDS011;133;49.626;9.680;2023-11-21T15:49:52;9.83;;;4.60;;
297;SDS011;133;49.626;9.680;2023-11-21T15:52:17;9.17;;;5.40;;
297;SDS011;133;49.626;9.680;2023-11-21T15:54:44;11.60;;;5.73;;
297;SDS011;133;49.626;9.680;2023-11-21T15:57:11;13.53;;;6.40;;
297;SDS011;133;49.626;9.680;2023-11-21T15:59:39;11.13;;;6.50;;
297;SDS011;133;49.626;9.680;2023-11-21T16:02:07;13.53;;;8.57;;
297;SDS011;133;49.626;9.680;2023-11-21T16:04:32;11.47;;;7.40;;